sensor_id;sensor_type;location;lat;lon;timestamp;temperature;humidity
43520;DHT22;46848;51.980;5.918;2024-03-25T00:02:13;8.60;78.50
43520;DHT22;46848;51.980;5.918;2024-03-25T00:04:38;8.50;78.50
43520;DHT22;46848;51.980;5.918;2024-03-25T00:07:04;8.50;78.60
43520;DHT22;46848;51.980;5.918;2024-03-25T00:09:30;8.50;78.60
43520;DHT22;46848;51.980;5.918;2024-03-25T00:11:55;8.50;78.60
43520;DHT22;46848;51.980;5.918;2024-03-25T00:14:21;8.50;78.60
43520;DHT22;46848;51.980;5.918;2024-03-25T00:16:47;8.50;78.80
43520;DHT22;46848;51.980;5.918;2024-03-25T00:19:13;8.50;78.80
43520;DHT22;46848;51.980;5.918;2024-03-25T00:21:38;8.50;78.80
43520;DHT22;46848;51.980;5.918;2024-03-25T00:24:04;8.50;78.70
43520;DHT22;46848;51.980;5.918;2024-03-25T00:26:29;8.50;78.80
43520;DHT22;46848;51.980;5.918;2024-03-25T00:28:55;8.50;78.80
43520;DHT22;46848;51.980;5.918;2024-03-25T00:31:21;8.50;78.90
43520;DHT22;46848;51.980;5.918;2024-03-25T00:33:46;8.40;78.90
43520;DHT22;46848;51.980;5.918;2024-03-25T00:36:12;8.50;79.10
43520;DHT22;46848;51.980;5.918;2024-03-25T00:38:38;8.50;79.10
43520;DHT22;46848;51.980;5.918;2024-03-25T00:41:03;8.60;79.10
43520;DHT22;46848;51.980;5.918;2024-03-25T00:43:29;8.70;78.90
43520;DHT22;46848;51.980;5.918;2024-03-25T00:45:55;8.80;78.80
43520;DHT22;46848;51.980;5.918;2024-03-25T00:48:22;8.80;78.60
43520;DHT22;46848;51.980;5.918;2024-03-25T00:50:48;8.80;78.60
43520;DHT22;46848;51.980;5.918;2024-03-25T00:53:14;8.80;78.50
43520;DHT22;46848;51.980;5.918;2024-03-25T00:55:40;8.80;78.40
43520;DHT22;46848;51.980;5.918;2024-03-25T00:58:05;8.70;78.40
43520;DHT22;46848;51.980;5.918;2024-03-25T01:00:31;8.70;78.50
43520;DHT22;46848;51.980;5.918;2024-03-25T01:02:56;8.60;78.50
43520;DHT22;46848;51.980;5.918;2024-03-25T01:05:22;8.60;78.60
43520;DHT22;46848;51.980;5.918;2024-03-25T01:07:47;8.50;78.70
43520;DHT22;46848;51.980;5.918;2024-03-25T01:10:14;8.50;78.80
43520;DHT22;46848;51.980;5.918;2024-03-25T01:12:41;8.50;78.80
43520;DHT22;46848;51.980;5.918;2024-03-25T01:15:07;8.40;78.80
43520;DHT22;46848;51.980;5.918;2024-03-25T01:17:32;8.40;78.80
43520;DHT22;46848;51.980;5.918;2024-03-25T01:19:58;8.40;79.00
43520;DHT22;46848;51.980;5.918;2024-03-25T01:22:24;8.30;78.90
43520;DHT22;46848;51.980;5.918;2024-03-25T01:24:49;8.30;78.90
43520;DHT22;46848;51.980;5.918;2024-03-25T01:27:15;8.30;79.00
43520;DHT22;46848;51.980;5.918;2024-03-25T01:29:40;8.30;79.10
43520;DHT22;46848;51.980;5.918;2024-03-25T01:32:06;8.20;79.00
43520;DHT22;46848;51.980;5.918;2024-03-25T01:34:32;8.20;79.10
43520;DHT22;46848;51.980;5.918;2024-03-25T01:36:57;8.20;79.30
43520;DHT22;46848;51.980;5.918;2024-03-25T01:39:23;8.20;79.20
43520;DHT22;46848;51.980;5.918;2024-03-25T01:41:50;8.10;79.20
43520;DHT22;46848;51.980;5.918;2024-03-25T01:44:15;8.20;79.30
43520;DHT22;46848;51.980;5.918;2024-03-25T01:46:41;8.10;79.30
43520;DHT22;46848;51.980;5.918;2024-03-25T01:49:08;8.10;79.40
43520;DHT22;46848;51.980;5.918;2024-03-25T01:51:35;8.10;79.40
43520;DHT22;46848;51.980;5.918;2024-03-25T01:54:02;8.10;79.50
43520;DHT22;46848;51.980;5.918;2024-03-25T01:56:31;8.10;79.50
43520;DHT22;46848;51.980;5.918;2024-03-25T01:58:59;8.10;79.60
43520;DHT22;46848;51.980;5.918;2024-03-25T02:01:24;8.00;79.50
43520;DHT22;46848;51.980;5.918;2024-03-25T02:03:50;8.00;79.50
43520;DHT22;46848;51.980;5.918;2024-03-25T02:06:17;8.00;79.50
43520;DHT22;46848;51.980;5.918;2024-03-25T02:08:44;8.00;79.50
43520;DHT22;46848;51.980;5.918;2024-03-25T02:11:10;8.00;79.50
43520;DHT22;46848;51.980;5.918;2024-03-25T02:13:37;8.00;79.50
43520;DHT22;46848;51.980;5.918;2024-03-25T02:16:03;8.00;79.40
43520;DHT22;46848;51.980;5.918;2024-03-25T02:18:29;8.00;79.50
43520;DHT22;46848;51.980;5.918;2024-03-25T02:20:56;7.90;79.50
43520;DHT22;46848;51.980;5.918;2024-03-25T02:23:22;7.90;79.50
43520;DHT22;46848;51.980;5.918;2024-03-25T02:25:50;7.90;79.60
43520;DHT22;46848;51.980;5.918;2024-03-25T02:28:16;7.90;79.70
43520;DHT22;46848;51.980;5.918;2024-03-25T02:30:42;7.90;79.70
43520;DHT22;46848;51.980;5.918;2024-03-25T02:33:08;7.90;79.70
43520;DHT22;46848;51.980;5.918;2024-03-25T02:35:34;7.90;79.70
43520;DHT22;46848;51.980;5.918;2024-03-25T02:38:01;7.90;79.70
43520;DHT22;46848;51.980;5.918;2024-03-25T02:40:28;7.80;80.30
43520;DHT22;46848;51.980;5.918;2024-03-25T02:42:54;7.80;79.80
43520;DHT22;46848;51.980;5.918;2024-03-25T02:45:19;7.80;79.70
43520;DHT22;46848;51.980;5.918;2024-03-25T02:47:46;7.80;79.70
43520;DHT22;46848;51.980;5.918;2024-03-25T02:50:11;7.80;79.70
43520;DHT22;46848;51.980;5.918;2024-03-25T02:52:37;7.80;79.70
43520;DHT22;46848;51.980;5.918;2024-03-25T02:55:03;7.80;79.90
43520;DHT22;46848;51.980;5.918;2024-03-25T02:57:31;7.80;79.90
43520;DHT22;46848;51.980;5.918;2024-03-25T02:59:57;7.80;79.80
43520;DHT22;46848;51.980;5.918;2024-03-25T03:02:22;7.80;79.80
43520;DHT22;46848;51.980;5.918;2024-03-25T03:04:48;7.80;79.80
43520;DHT22;46848;51.980;5.918;2024-03-25T03:07:13;7.80;79.90
43520;DHT22;46848;51.980;5.918;2024-03-25T03:09:39;7.80;79.90
43520;DHT22;46848;51.980;5.918;2024-03-25T03:12:05;7.80;79.90
43520;DHT22;46848;51.980;5.918;2024-03-25T03:14:30;7.80;80.00
43520;DHT22;46848;51.980;5.918;2024-03-25T03:16:56;7.80;79.90
43520;DHT22;46848;51.980;5.918;2024-03-25T03:19:26;7.80;79.90
43520;DHT22;46848;51.980;5.918;2024-03-25T03:21:53;7.80;79.90
43520;DHT22;46848;51.980;5.918;2024-03-25T03:24:19;7.80;79.90
43520;DHT22;46848;51.980;5.918;2024-03-25T03:26:44;7.80;79.90
43520;DHT22;46848;51.980;5.918;2024-03-25T03:29:10;7.80;79.90
43520;DHT22;46848;51.980;5.918;2024-03-25T03:31:36;7.80;79.90
43520;DHT22;46848;51.980;5.918;2024-03-25T03:34:02;7.80;79.90
43520;DHT22;46848;51.980;5.918;2024-03-25T03:36:27;7.80;79.80
43520;DHT22;46848;51.980;5.918;2024-03-25T03:38:53;7.80;79.80
43520;DHT22;46848;51.980;5.918;2024-03-25T03:41:19;7.80;79.90
43520;DHT22;46848;51.980;5.918;2024-03-25T03:43:45;7.70;79.70
43520;DHT22;46848;51.980;5.918;2024-03-25T03:46:11;7.70;79.70
43520;DHT22;46848;51.980;5.918;2024-03-25T03:48:36;7.70;79.90
43520;DHT22;46848;51.980;5.918;2024-03-25T03:51:04;7.70;79.90
43520;DHT22;46848;51.980;5.918;2024-03-25T03:53:29;7.70;79.90
43520;DHT22;46848;51.980;5.918;2024-03-25T03:55:57;7.70;79.90
43520;DHT22;46848;51.980;5.918;2024-03-25T03:58:23;7.70;79.90
43520;DHT22;46848;51.980;5.918;2024-03-25T04:00:49;7.70;79.90
43520;DHT22;46848;51.980;5.918;2024-03-25T04:03:15;7.70;79.90
43520;DHT22;46848;51.980;5.918;2024-03-25T04:05:41;7.70;79.90
43520;DHT22;46848;51.980;5.918;2024-03-25T04:08:07;7.70;79.90
43520;DHT22;46848;51.980;5.918;2024-03-25T04:10:34;7.60;79.80
43520;DHT22;46848;51.980;5.918;2024-03-25T04:12:59;7.60;79.80
43520;DHT22;46848;51.980;5.918;2024-03-25T04:15:25;7.60;79.80
43520;DHT22;46848;51.980;5.918;2024-03-25T04:17:51;7.60;79.80
43520;DHT22;46848;51.980;5.918;2024-03-25T04:20:17;7.60;79.80
43520;DHT22;46848;51.980;5.918;2024-03-25T04:22:46;7.50;79.80
43520;DHT22;46848;51.980;5.918;2024-03-25T04:25:13;7.50;79.90
43520;DHT22;46848;51.980;5.918;2024-03-25T04:27:42;7.50;79.90
43520;DHT22;46848;51.980;5.918;2024-03-25T04:30:09;7.60;80.00
43520;DHT22;46848;51.980;5.918;2024-03-25T04:32:35;7.60;79.90
43520;DHT22;46848;51.980;5.918;2024-03-25T04:35:02;7.50;79.90
43520;DHT22;46848;51.980;5.918;2024-03-25T04:37:28;7.60;80.00
43520;DHT22;46848;51.980;5.918;2024-03-25T04:39:55;7.60;80.00
43520;DHT22;46848;51.980;5.918;2024-03-25T04:42:21;7.60;80.00
43520;DHT22;46848;51.980;5.918;2024-03-25T04:44:47;7.60;80.00
43520;DHT22;46848;51.980;5.918;2024-03-25T04:47:13;7.60;80.10
43520;DHT22;46848;51.980;5.918;2024-03-25T04:49:40;7.50;80.00
43520;DHT22;46848;51.980;5.918;2024-03-25T04:52:06;7.50;80.10
43520;DHT22;46848;51.980;5.918;2024-03-25T04:54:32;7.50;80.10
43520;DHT22;46848;51.980;5.918;2024-03-25T04:56:57;7.50;80.10
43520;DHT22;46848;51.980;5.918;2024-03-25T04:59:23;7.40;80.10
43520;DHT22;46848;51.980;5.918;2024-03-25T05:01:48;7.40;80.10
43520;DHT22;46848;51.980;5.918;2024-03-25T05:04:14;7.40;80.10
43520;DHT22;46848;51.980;5.918;2024-03-25T05:06:39;7.40;80.20
43520;DHT22;46848;51.980;5.918;2024-03-25T05:09:05;7.40;80.20
43520;DHT22;46848;51.980;5.918;2024-03-25T05:11:33;7.40;80.20
43520;DHT22;46848;51.980;5.918;2024-03-25T05:13:59;7.40;80.20
43520;DHT22;46848;51.980;5.918;2024-03-25T05:16:25;7.30;80.20
43520;DHT22;46848;51.980;5.918;2024-03-25T05:18:50;7.30;80.20
43520;DHT22;46848;51.980;5.918;2024-03-25T05:21:16;7.30;80.20
43520;DHT22;46848;51.980;5.918;2024-03-25T05:23:42;7.40;80.30
43520;DHT22;46848;51.980;5.918;2024-03-25T05:26:08;7.30;80.20
43520;DHT22;46848;51.980;5.918;2024-03-25T05:28:33;7.30;80.20
43520;DHT22;46848;51.980;5.918;2024-03-25T05:31:09;7.20;80.10
43520;DHT22;46848;51.980;5.918;2024-03-25T05:33:35;7.20;80.10
43520;DHT22;46848;51.980;5.918;2024-03-25T05:36:01;7.20;80.10
43520;DHT22;46848;51.980;5.918;2024-03-25T05:38:28;7.20;80.10
43520;DHT22;46848;51.980;5.918;2024-03-25T05:40:53;7.20;80.70
43520;DHT22;46848;51.980;5.918;2024-03-25T05:43:19;7.20;80.10
43520;DHT22;46848;51.980;5.918;2024-03-25T05:45:54;7.20;80.20
43520;DHT22;46848;51.980;5.918;2024-03-25T05:48:20;7.20;80.20
43520;DHT22;46848;51.980;5.918;2024-03-25T05:50:46;7.10;80.10
43520;DHT22;46848;51.980;5.918;2024-03-25T05:53:12;7.10;80.70
43520;DHT22;46848;51.980;5.918;2024-03-25T05:55:37;7.20;80.20
43520;DHT22;46848;51.980;5.918;2024-03-25T05:58:03;7.10;80.10
43520;DHT22;46848;51.980;5.918;2024-03-25T06:00:29;7.10;80.20
43520;DHT22;46848;51.980;5.918;2024-03-25T06:02:56;7.20;80.20
43520;DHT22;46848;51.980;5.918;2024-03-25T06:05:21;7.20;80.20
43520;DHT22;46848;51.980;5.918;2024-03-25T06:07:47;7.20;80.20
43520;DHT22;46848;51.980;5.918;2024-03-25T06:10:13;7.20;80.20
43520;DHT22;46848;51.980;5.918;2024-03-25T06:12:38;7.20;80.20
43520;DHT22;46848;51.980;5.918;2024-03-25T06:15:04;7.20;80.20
43520;DHT22;46848;51.980;5.918;2024-03-25T06:17:30;7.20;80.20
43520;DHT22;46848;51.980;5.918;2024-03-25T06:19:55;7.30;80.20
43520;DHT22;46848;51.980;5.918;2024-03-25T06:22:21;7.30;80.10
43520;DHT22;46848;51.980;5.918;2024-03-25T06:24:46;7.30;80.10
43520;DHT22;46848;51.980;5.918;2024-03-25T06:27:14;7.30;80.10
43520;DHT22;46848;51.980;5.918;2024-03-25T06:29:40;7.40;80.10
43520;DHT22;46848;51.980;5.918;2024-03-25T06:32:05;7.40;80.10
43520;DHT22;46848;51.980;5.918;2024-03-25T06:34:49;7.40;80.10
43520;DHT22;46848;51.980;5.918;2024-03-25T06:37:15;7.40;80.10
43520;DHT22;46848;51.980;5.918;2024-03-25T06:39:40;7.50;80.10
43520;DHT22;46848;51.980;5.918;2024-03-25T06:42:07;7.50;80.00
43520;DHT22;46848;51.980;5.918;2024-03-25T06:44:32;7.50;79.90
43520;DHT22;46848;51.980;5.918;2024-03-25T06:46:58;7.60;80.00
43520;DHT22;46848;51.980;5.918;2024-03-25T06:49:23;7.70;80.10
43520;DHT22;46848;51.980;5.918;2024-03-25T06:51:49;7.80;80.00
43520;DHT22;46848;51.980;5.918;2024-03-25T06:54:14;8.00;79.80
43520;DHT22;46848;51.980;5.918;2024-03-25T06:56:40;8.30;79.50
43520;DHT22;46848;51.980;5.918;2024-03-25T06:59:07;8.50;79.10
43520;DHT22;46848;51.980;5.918;2024-03-25T07:01:32;8.80;78.70
43520;DHT22;46848;51.980;5.918;2024-03-25T07:03:58;9.10;78.30
43520;DHT22;46848;51.980;5.918;2024-03-25T07:06:24;9.40;77.80
43520;DHT22;46848;51.980;5.918;2024-03-25T07:08:50;9.70;77.20
43520;DHT22;46848;51.980;5.918;2024-03-25T07:11:16;10.00;76.60
43520;DHT22;46848;51.980;5.918;2024-03-25T07:13:43;10.10;75.70
43520;DHT22;46848;51.980;5.918;2024-03-25T07:16:08;10.30;75.60
43520;DHT22;46848;51.980;5.918;2024-03-25T07:18:34;10.50;75.30
43520;DHT22;46848;51.980;5.918;2024-03-25T07:20:59;10.80;74.90
43520;DHT22;46848;51.980;5.918;2024-03-25T07:23:25;11.00;74.50
43520;DHT22;46848;51.980;5.918;2024-03-25T07:25:50;11.30;74.10
43520;DHT22;46848;51.980;5.918;2024-03-25T07:28:16;11.60;73.40
43520;DHT22;46848;51.980;5.918;2024-03-25T07:30:42;11.90;72.70
43520;DHT22;46848;51.980;5.918;2024-03-25T07:33:07;12.20;72.10
43520;DHT22;46848;51.980;5.918;2024-03-25T07:35:33;12.50;71.70
43520;DHT22;46848;51.980;5.918;2024-03-25T07:37:59;12.90;70.90
43520;DHT22;46848;51.980;5.918;2024-03-25T07:40:24;13.20;70.30
43520;DHT22;46848;51.980;5.918;2024-03-25T07:42:50;13.60;69.20
43520;DHT22;46848;51.980;5.918;2024-03-25T07:45:16;14.00;68.50
43520;DHT22;46848;51.980;5.918;2024-03-25T07:47:41;14.30;68.00
43520;DHT22;46848;51.980;5.918;2024-03-25T07:50:07;14.60;67.20
43520;DHT22;46848;51.980;5.918;2024-03-25T07:52:33;14.80;66.60
43520;DHT22;46848;51.980;5.918;2024-03-25T07:55:01;15.10;66.40
43520;DHT22;46848;51.980;5.918;2024-03-25T07:57:27;15.30;65.80
43520;DHT22;46848;51.980;5.918;2024-03-25T07:59:53;15.60;66.20
43520;DHT22;46848;51.980;5.918;2024-03-25T08:02:19;16.00;66.20
43520;DHT22;46848;51.980;5.918;2024-03-25T08:04:44;16.30;65.50
43520;DHT22;46848;51.980;5.918;2024-03-25T08:07:10;16.80;65.10
43520;DHT22;46848;51.980;5.918;2024-03-25T08:09:35;17.10;64.70
43520;DHT22;46848;51.980;5.918;2024-03-25T08:12:01;17.50;64.40
43520;DHT22;46848;51.980;5.918;2024-03-25T08:14:26;17.80;63.70
43520;DHT22;46848;51.980;5.918;2024-03-25T08:16:52;18.20;63.00
43520;DHT22;46848;51.980;5.918;2024-03-25T08:19:17;18.50;62.60
43520;DHT22;46848;51.980;5.918;2024-03-25T08:21:43;18.80;63.40
43520;DHT22;46848;51.980;5.918;2024-03-25T08:24:08;19.10;64.00
43520;DHT22;46848;51.980;5.918;2024-03-25T08:26:34;19.30;62.40
43520;DHT22;46848;51.980;5.918;2024-03-25T08:28:59;19.60;62.80
43520;DHT22;46848;51.980;5.918;2024-03-25T08:31:25;19.80;63.40
43520;DHT22;46848;51.980;5.918;2024-03-25T08:33:50;20.10;61.90
43520;DHT22;46848;51.980;5.918;2024-03-25T08:36:17;20.30;61.90
43520;DHT22;46848;51.980;5.918;2024-03-25T08:38:43;20.50;61.10
43520;DHT22;46848;51.980;5.918;2024-03-25T08:41:09;20.70;60.20
43520;DHT22;46848;51.980;5.918;2024-03-25T08:43:35;20.90;60.70
43520;DHT22;46848;51.980;5.918;2024-03-25T08:46:00;21.10;60.40
43520;DHT22;46848;51.980;5.918;2024-03-25T08:48:26;21.10;60.50
43520;DHT22;46848;51.980;5.918;2024-03-25T08:50:52;21.20;61.00
43520;DHT22;46848;51.980;5.918;2024-03-25T08:53:17;21.40;60.30
43520;DHT22;46848;51.980;5.918;2024-03-25T08:55:46;21.70;60.20
43520;DHT22;46848;51.980;5.918;2024-03-25T08:58:13;21.80;59.30
43520;DHT22;46848;51.980;5.918;2024-03-25T09:00:38;22.00;60.90
43520;DHT22;46848;51.980;5.918;2024-03-25T09:03:04;22.20;59.80
43520;DHT22;46848;51.980;5.918;2024-03-25T09:05:30;22.40;59.90
43520;DHT22;46848;51.980;5.918;2024-03-25T09:07:56;22.40;60.00
43520;DHT22;46848;51.980;5.918;2024-03-25T09:10:24;22.00;59.00
43520;DHT22;46848;51.980;5.918;2024-03-25T09:13:08;21.70;61.80
43520;DHT22;46848;51.980;5.918;2024-03-25T09:15:34;21.50;60.80
43520;DHT22;46848;51.980;5.918;2024-03-25T09:17:59;21.50;61.70
43520;DHT22;46848;51.980;5.918;2024-03-25T09:20:25;21.60;60.00
43520;DHT22;46848;51.980;5.918;2024-03-25T09:22:51;21.80;59.50
43520;DHT22;46848;51.980;5.918;2024-03-25T09:25:19;21.40;55.50
43520;DHT22;46848;51.980;5.918;2024-03-25T09:27:48;21.10;59.20
43520;DHT22;46848;51.980;5.918;2024-03-25T09:30:14;21.20;58.40
43520;DHT22;46848;51.980;5.918;2024-03-25T09:32:41;21.50;60.00
43520;DHT22;46848;51.980;5.918;2024-03-25T09:35:08;21.70;60.80
43520;DHT22;46848;51.980;5.918;2024-03-25T09:37:34;21.80;59.80
43520;DHT22;46848;51.980;5.918;2024-03-25T09:39:59;22.00;59.60
43520;DHT22;46848;51.980;5.918;2024-03-25T09:42:26;22.10;59.10
43520;DHT22;46848;51.980;5.918;2024-03-25T09:44:56;22.30;59.30
43520;DHT22;46848;51.980;5.918;2024-03-25T09:47:22;22.40;58.00
43520;DHT22;46848;51.980;5.918;2024-03-25T09:49:48;22.40;59.50
43520;DHT22;46848;51.980;5.918;2024-03-25T09:52:17;22.20;59.90
43520;DHT22;46848;51.980;5.918;2024-03-25T09:54:42;22.00;59.10
43520;DHT22;46848;51.980;5.918;2024-03-25T09:57:09;21.70;60.60
43520;DHT22;46848;51.980;5.918;2024-03-25T09:59:34;21.30;61.30
43520;DHT22;46848;51.980;5.918;2024-03-25T10:02:01;21.00;61.70
43520;DHT22;46848;51.980;5.918;2024-03-25T10:04:27;20.80;61.30
43520;DHT22;46848;51.980;5.918;2024-03-25T10:06:52;20.70;61.10
43520;DHT22;46848;51.980;5.918;2024-03-25T10:09:22;20.70;61.00
43520;DHT22;46848;51.980;5.918;2024-03-25T10:11:50;20.60;60.90
43520;DHT22;46848;51.980;5.918;2024-03-25T10:14:16;20.40;61.40
43520;DHT22;46848;51.980;5.918;2024-03-25T10:16:42;20.30;61.70
43520;DHT22;46848;51.980;5.918;2024-03-25T10:19:09;20.20;61.20
43520;DHT22;46848;51.980;5.918;2024-03-25T10:21:35;20.10;61.30
43520;DHT22;46848;51.980;5.918;2024-03-25T10:24:01;20.00;61.70
43520;DHT22;46848;51.980;5.918;2024-03-25T10:26:28;19.90;61.80
43520;DHT22;46848;51.980;5.918;2024-03-25T10:29:02;19.80;61.70
43520;DHT22;46848;51.980;5.918;2024-03-25T10:31:28;19.80;60.90
43520;DHT22;46848;51.980;5.918;2024-03-25T10:33:53;19.80;61.30
43520;DHT22;46848;51.980;5.918;2024-03-25T10:36:20;19.90;60.50
43520;DHT22;46848;51.980;5.918;2024-03-25T10:38:48;19.90;60.30
43520;DHT22;46848;51.980;5.918;2024-03-25T10:41:17;20.00;59.60
43520;DHT22;46848;51.980;5.918;2024-03-25T10:43:47;20.00;59.10
43520;DHT22;46848;51.980;5.918;2024-03-25T10:46:20;19.70;56.80
43520;DHT22;46848;51.980;5.918;2024-03-25T10:49:19;19.50;58.00
43520;DHT22;46848;51.980;5.918;2024-03-25T10:51:50;19.50;58.20
43520;DHT22;46848;51.980;5.918;2024-03-25T10:54:16;19.40;59.80
43520;DHT22;46848;51.980;5.918;2024-03-25T10:56:43;19.20;59.60
43520;DHT22;46848;51.980;5.918;2024-03-25T10:59:10;19.30;59.40
43520;DHT22;46848;51.980;5.918;2024-03-25T11:01:36;19.30;59.10
43520;DHT22;46848;51.980;5.918;2024-03-25T11:04:02;19.30;57.40
43520;DHT22;46848;51.980;5.918;2024-03-25T11:06:31;19.10;58.00
43520;DHT22;46848;51.980;5.918;2024-03-25T11:08:59;18.90;58.40
43520;DHT22;46848;51.980;5.918;2024-03-25T11:11:31;18.90;58.70
43520;DHT22;46848;51.980;5.918;2024-03-25T11:13:58;18.80;58.00
43520;DHT22;46848;51.980;5.918;2024-03-25T11:16:30;19.00;58.20
43520;DHT22;46848;51.980;5.918;2024-03-25T11:19:03;18.90;56.00
43520;DHT22;46848;51.980;5.918;2024-03-25T11:21:29;18.60;56.40
43520;DHT22;46848;51.980;5.918;2024-03-25T11:23:55;18.40;57.60
43520;DHT22;46848;51.980;5.918;2024-03-25T11:26:26;18.20;57.20
43520;DHT22;46848;51.980;5.918;2024-03-25T11:28:56;18.00;57.30
43520;DHT22;46848;51.980;5.918;2024-03-25T11:31:21;18.00;58.00
43520;DHT22;46848;51.980;5.918;2024-03-25T11:33:50;18.00;58.60
43520;DHT22;46848;51.980;5.918;2024-03-25T11:36:15;18.00;57.90
43520;DHT22;46848;51.980;5.918;2024-03-25T11:38:43;18.00;57.70
43520;DHT22;46848;51.980;5.918;2024-03-25T11:41:10;17.90;57.20
43520;DHT22;46848;51.980;5.918;2024-03-25T11:43:36;17.80;57.60
43520;DHT22;46848;51.980;5.918;2024-03-25T11:46:02;17.80;57.70
43520;DHT22;46848;51.980;5.918;2024-03-25T11:48:29;17.80;57.80
43520;DHT22;46848;51.980;5.918;2024-03-25T11:50:55;17.80;57.40
43520;DHT22;46848;51.980;5.918;2024-03-25T11:53:20;17.80;57.00
43520;DHT22;46848;51.980;5.918;2024-03-25T11:55:47;17.80;57.00
43520;DHT22;46848;51.980;5.918;2024-03-25T11:58:17;17.90;57.00
43520;DHT22;46848;51.980;5.918;2024-03-25T12:00:47;17.90;55.20
43520;DHT22;46848;51.980;5.918;2024-03-25T12:03:16;18.00;55.60
43520;DHT22;46848;51.980;5.918;2024-03-25T12:05:44;18.00;55.30
43520;DHT22;46848;51.980;5.918;2024-03-25T12:08:10;17.90;53.00
43520;DHT22;46848;51.980;5.918;2024-03-25T12:10:37;17.90;52.90
43520;DHT22;46848;51.980;5.918;2024-03-25T12:13:22;17.60;50.80
43520;DHT22;46848;51.980;5.918;2024-03-25T12:15:48;17.50;52.20
43520;DHT22;46848;51.980;5.918;2024-03-25T12:18:14;17.40;52.10
43520;DHT22;46848;51.980;5.918;2024-03-25T12:20:40;17.30;53.50
43520;DHT22;46848;51.980;5.918;2024-03-25T12:23:06;17.20;54.60
43520;DHT22;46848;51.980;5.918;2024-03-25T12:25:32;17.30;54.70
43520;DHT22;46848;51.980;5.918;2024-03-25T12:27:57;17.40;54.60
43520;DHT22;46848;51.980;5.918;2024-03-25T12:30:23;17.60;54.60
43520;DHT22;46848;51.980;5.918;2024-03-25T12:32:50;17.80;54.70
43520;DHT22;46848;51.980;5.918;2024-03-25T12:35:17;17.90;53.10
43520;DHT22;46848;51.980;5.918;2024-03-25T12:37:44;17.90;53.70
43520;DHT22;46848;51.980;5.918;2024-03-25T12:40:11;17.80;53.80
43520;DHT22;46848;51.980;5.918;2024-03-25T12:42:37;17.80;53.90
43520;DHT22;46848;51.980;5.918;2024-03-25T12:45:05;17.70;53.90
43520;DHT22;46848;51.980;5.918;2024-03-25T12:47:31;17.70;53.90
43520;DHT22;46848;51.980;5.918;2024-03-25T12:49:57;17.60;53.90
43520;DHT22;46848;51.980;5.918;2024-03-25T12:52:23;17.50;52.60
43520;DHT22;46848;51.980;5.918;2024-03-25T12:54:49;17.30;53.40
43520;DHT22;46848;51.980;5.918;2024-03-25T12:57:15;17.00;52.00
43520;DHT22;46848;51.980;5.918;2024-03-25T12:59:40;16.80;52.80
43520;DHT22;46848;51.980;5.918;2024-03-25T13:02:09;16.60;53.80
43520;DHT22;46848;51.980;5.918;2024-03-25T13:04:36;16.50;53.90
43520;DHT22;46848;51.980;5.918;2024-03-25T13:07:03;16.40;53.80
43520;DHT22;46848;51.980;5.918;2024-03-25T13:09:28;16.40;54.10
43520;DHT22;46848;51.980;5.918;2024-03-25T13:11:58;16.40;53.40
43520;DHT22;46848;51.980;5.918;2024-03-25T13:14:24;16.30;52.30
43520;DHT22;46848;51.980;5.918;2024-03-25T13:16:50;16.10;51.80
43520;DHT22;46848;51.980;5.918;2024-03-25T13:19:16;15.90;52.50
43520;DHT22;46848;51.980;5.918;2024-03-25T13:21:41;15.90;51.60
43520;DHT22;46848;51.980;5.918;2024-03-25T13:24:08;15.80;52.00
43520;DHT22;46848;51.980;5.918;2024-03-25T13:26:33;15.70;53.10
43520;DHT22;46848;51.980;5.918;2024-03-25T13:28:59;15.50;52.60
43520;DHT22;46848;51.980;5.918;2024-03-25T13:31:25;15.50;53.60
43520;DHT22;46848;51.980;5.918;2024-03-25T13:33:51;15.50;53.40
43520;DHT22;46848;51.980;5.918;2024-03-25T13:36:17;15.60;53.30
43520;DHT22;46848;51.980;5.918;2024-03-25T13:38:43;15.60;52.60
43520;DHT22;46848;51.980;5.918;2024-03-25T13:41:08;15.50;52.70
43520;DHT22;46848;51.980;5.918;2024-03-25T13:43:34;15.30;51.30
43520;DHT22;46848;51.980;5.918;2024-03-25T13:46:00;15.20;52.10
43520;DHT22;46848;51.980;5.918;2024-03-25T13:48:25;15.10;51.90
43520;DHT22;46848;51.980;5.918;2024-03-25T13:50:53;15.20;51.90
43520;DHT22;46848;51.980;5.918;2024-03-25T13:53:20;15.40;51.90
43520;DHT22;46848;51.980;5.918;2024-03-25T13:55:45;15.50;51.70
43520;DHT22;46848;51.980;5.918;2024-03-25T13:58:11;15.50;51.50
43520;DHT22;46848;51.980;5.918;2024-03-25T14:00:37;15.70;51.30
43520;DHT22;46848;51.980;5.918;2024-03-25T14:03:03;15.70;50.10
43520;DHT22;46848;51.980;5.918;2024-03-25T14:05:29;15.90;50.30
43520;DHT22;46848;51.980;5.918;2024-03-25T14:07:55;15.90;49.40
43520;DHT22;46848;51.980;5.918;2024-03-25T14:10:22;16.10;49.60
43520;DHT22;46848;51.980;5.918;2024-03-25T14:12:47;16.10;48.60
43520;DHT22;46848;51.980;5.918;2024-03-25T14:15:13;16.20;49.30
43520;DHT22;46848;51.980;5.918;2024-03-25T14:17:38;16.20;49.90
43520;DHT22;46848;51.980;5.918;2024-03-25T14:20:04;16.20;48.50
43520;DHT22;46848;51.980;5.918;2024-03-25T14:22:32;16.10;48.80
43520;DHT22;46848;51.980;5.918;2024-03-25T14:24:59;16.10;49.30
43520;DHT22;46848;51.980;5.918;2024-03-25T14:27:25;16.00;48.50
43520;DHT22;46848;51.980;5.918;2024-03-25T14:29:51;16.00;48.80
43520;DHT22;46848;51.980;5.918;2024-03-25T14:32:20;16.10;48.30
43520;DHT22;46848;51.980;5.918;2024-03-25T14:34:49;16.10;47.50
43520;DHT22;46848;51.980;5.918;2024-03-25T14:37:15;16.00;47.80
43520;DHT22;46848;51.980;5.918;2024-03-25T14:39:41;16.00;48.80
43520;DHT22;46848;51.980;5.918;2024-03-25T14:42:10;16.10;48.90
43520;DHT22;46848;51.980;5.918;2024-03-25T14:44:36;16.20;48.60
43520;DHT22;46848;51.980;5.918;2024-03-25T14:47:03;16.20;47.90
43520;DHT22;46848;51.980;5.918;2024-03-25T14:49:29;16.10;46.60
43520;DHT22;46848;51.980;5.918;2024-03-25T14:51:55;15.90;47.30
43520;DHT22;46848;51.980;5.918;2024-03-25T14:54:20;15.80;47.00
43520;DHT22;46848;51.980;5.918;2024-03-25T14:56:46;15.80;46.90
43520;DHT22;46848;51.980;5.918;2024-03-25T14:59:12;15.70;47.40
43520;DHT22;46848;51.980;5.918;2024-03-25T15:01:38;15.80;47.80
43520;DHT22;46848;51.980;5.918;2024-03-25T15:04:05;15.70;47.20
43520;DHT22;46848;51.980;5.918;2024-03-25T15:06:30;15.70;47.10
43520;DHT22;46848;51.980;5.918;2024-03-25T15:08:57;15.60;48.20
43520;DHT22;46848;51.980;5.918;2024-03-25T15:11:23;15.60;48.00
43520;DHT22;46848;51.980;5.918;2024-03-25T15:13:48;15.50;48.20
43520;DHT22;46848;51.980;5.918;2024-03-25T15:16:16;15.50;48.00
43520;DHT22;46848;51.980;5.918;2024-03-25T15:18:41;15.50;48.40
43520;DHT22;46848;51.980;5.918;2024-03-25T15:21:07;15.50;48.10
43520;DHT22;46848;51.980;5.918;2024-03-25T15:23:32;15.40;49.00
43520;DHT22;46848;51.980;5.918;2024-03-25T15:25:58;15.40;48.90
43520;DHT22;46848;51.980;5.918;2024-03-25T15:28:24;15.40;48.80
43520;DHT22;46848;51.980;5.918;2024-03-25T15:30:50;15.40;48.80
43520;DHT22;46848;51.980;5.918;2024-03-25T15:33:17;15.40;48.70